createdAt,value
2024-01-09T00:00:29.711Z,43.10
2024-01-09T00:05:32.135Z,43.10
2024-01-09T00:10:34.039Z,43.30
2024-01-09T00:15:35.905Z,43.20
2024-01-09T00:20:37.741Z,43.20
2024-01-09T00:25:39.560Z,43.20
2024-01-09T00:30:41.738Z,43.20
2024-01-09T00:35:44.056Z,43.20
2024-01-09T00:40:46.292Z,43.30
2024-01-09T00:45:48.082Z,43.30
2024-01-09T00:50:50.044Z,43.30
2024-01-09T00:55:52.176Z,43.30
2024-01-09T01:00:53.987Z,44.00
2024-01-09T01:05:55.901Z,43.40
2024-01-09T01:10:57.644Z,43.40
2024-01-09T01:15:59.520Z,43.40
2024-01-09T01:21:01.312Z,43.50
2024-01-09T01:26:03.325Z,43.50
2024-01-09T01:31:05.318Z,43.50
2024-01-09T01:36:07.171Z,43.60
2024-01-09T01:41:09.032Z,43.60
2024-01-09T01:46:11.082Z,43.60
2024-01-09T01:51:13.173Z,43.60
2024-01-09T01:56:15.201Z,43.60
2024-01-09T02:01:17.777Z,43.60
2024-01-09T02:06:19.690Z,43.60
2024-01-09T02:11:22.328Z,43.60
2024-01-09T02:16:24.184Z,43.60
2024-01-09T02:21:25.928Z,44.30
2024-01-09T02:26:46.306Z,43.70
2024-01-09T02:31:55.288Z,43.60
2024-01-09T02:36:57.138Z,43.60
2024-01-09T02:41:58.950Z,43.70
2024-01-09T02:47:01.015Z,43.70
2024-01-09T02:52:03.443Z,43.70
2024-01-09T02:57:05.402Z,43.90
2024-01-09T03:02:07.295Z,43.90
2024-01-09T03:07:09.336Z,43.80
2024-01-09T03:12:11.251Z,43.90
2024-01-09T03:17:13.131Z,43.90
2024-01-09T03:22:14.980Z,43.90
2024-01-09T03:27:16.788Z,44.00
2024-01-09T03:32:18.548Z,44.00
2024-01-09T03:37:20.346Z,44.00
2024-01-09T03:42:22.053Z,44.10
2024-01-09T03:47:23.860Z,44.00
2024-01-09T03:52:26.262Z,43.90
2024-01-09T03:57:28.052Z,43.90
2024-01-09T04:02:29.857Z,43.80
2024-01-09T04:07:31.862Z,43.90
2024-01-09T04:12:34.045Z,43.70
2024-01-09T04:17:35.910Z,43.60
2024-01-09T04:22:37.792Z,43.50
2024-01-09T04:27:39.658Z,43.50
2024-01-09T04:32:41.769Z,43.30
2024-01-09T04:37:43.734Z,43.20
2024-01-09T04:42:45.637Z,43.80
2024-01-09T04:47:47.667Z,43.00
2024-01-09T04:52:49.580Z,43.00
2024-01-09T04:57:51.300Z,43.10
2024-01-09T05:02:54.484Z,43.10
2024-01-09T05:07:56.562Z,43.20
2024-01-09T05:12:59.151Z,43.20
2024-01-09T05:18:02.355Z,43.10
2024-01-09T05:23:04.539Z,42.90
2024-01-09T05:28:06.503Z,42.90
2024-01-09T05:33:08.433Z,42.80
2024-01-09T05:38:18.097Z,42.70
2024-01-09T05:43:21.051Z,42.70
2024-01-09T05:48:23.110Z,42.50
2024-01-09T05:53:25.046Z,42.50
2024-01-09T05:58:26.844Z,42.50
2024-01-09T06:03:28.702Z,42.30
2024-01-09T06:08:30.526Z,42.40
2024-01-09T06:13:32.618Z,42.30
2024-01-09T06:18:34.896Z,42.40
2024-01-09T06:23:36.797Z,42.30
2024-01-09T06:28:38.562Z,42.30
2024-01-09T06:33:40.422Z,42.40
2024-01-09T06:38:42.680Z,42.40
2024-01-09T06:43:45.190Z,42.50
2024-01-09T06:48:47.139Z,42.60
2024-01-09T06:53:49.124Z,42.60
2024-01-09T06:58:53.188Z,42.60
2024-01-09T07:03:55.904Z,42.50
2024-01-09T07:08:58.022Z,42.50
2024-01-09T07:13:59.825Z,42.50
2024-01-09T07:19:02.072Z,42.50
2024-01-09T07:24:04.160Z,42.50
2024-01-09T07:29:06.189Z,42.50
2024-01-09T07:34:08.081Z,42.60
2024-01-09T07:39:11.078Z,42.60
2024-01-09T07:44:13.241Z,42.30
2024-01-09T07:49:15.108Z,42.20
2024-01-09T07:54:16.891Z,42.30
2024-01-09T07:59:18.730Z,42.20
2024-01-09T08:04:20.535Z,42.30
2024-01-09T08:09:22.420Z,42.20
2024-01-09T08:14:24.337Z,42.10
2024-01-09T08:19:26.138Z,42.20
2024-01-09T08:24:27.973Z,42.50
2024-01-09T08:29:29.757Z,43.40
2024-01-09T08:34:31.705Z,42.60
2024-01-09T08:39:33.576Z,42.60
2024-01-09T08:44:35.499Z,42.50
2024-01-09T08:49:37.571Z,42.60
2024-01-09T08:54:39.436Z,42.60
2024-01-09T08:59:41.243Z,42.60
2024-01-09T09:04:43.074Z,42.50
2024-01-09T09:09:45.056Z,42.60
2024-01-09T09:14:46.841Z,42.50
2024-01-09T09:19:48.841Z,42.40
2024-01-09T09:24:51.255Z,42.40
2024-01-09T09:29:54.078Z,42.40
2024-01-09T09:34:55.886Z,42.30
2024-01-09T09:39:57.755Z,42.20
2024-01-09T09:45:02.215Z,42.10
2024-01-09T09:50:05.657Z,42.10
2024-01-09T09:55:09.425Z,42.20
2024-01-09T10:00:11.729Z,42.10
2024-01-09T10:05:20.138Z,42.00
2024-01-09T10:10:22.165Z,42.10
2024-01-09T10:15:24.075Z,42.20
2024-01-09T10:20:31.225Z,42.10
2024-01-09T10:25:33.382Z,42.20
2024-01-09T10:30:35.167Z,42.40
2024-01-09T10:35:38.258Z,42.00
2024-01-09T10:40:40.130Z,42.20
2024-01-09T10:45:41.994Z,42.10
2024-01-09T10:50:43.992Z,42.00
2024-01-09T10:55:47.730Z,42.80
2024-01-09T11:00:49.527Z,42.60
2024-01-09T11:06:00.541Z,43.00
2024-01-09T11:11:09.981Z,43.20
2024-01-09T11:16:12.760Z,43.60
2024-01-09T11:21:14.739Z,43.60
2024-01-09T11:26:16.846Z,43.70
2024-01-09T11:31:23.157Z,43.90
2024-01-09T11:36:27.880Z,44.00
2024-01-09T11:41:35.436Z,43.90
2024-01-09T11:46:39.181Z,43.70
2024-01-09T11:51:41.251Z,44.00
2024-01-09T11:56:43.183Z,43.90
2024-01-09T12:01:47.297Z,43.90
2024-01-09T12:06:49.350Z,43.70
2024-01-09T12:11:51.329Z,43.60
2024-01-09T12:16:53.488Z,43.30
2024-01-09T12:21:55.984Z,43.30
2024-01-09T12:26:58.106Z,43.10
2024-01-09T12:31:59.956Z,43.10
2024-01-09T12:37:06.510Z,43.10
2024-01-09T12:42:16.251Z,43.30
2024-01-09T12:47:18.526Z,43.10
2024-01-09T12:52:21.898Z,43.50
2024-01-09T12:57:24.105Z,43.30
2024-01-09T13:02:26.359Z,43.30
2024-01-09T13:07:28.573Z,43.10
2024-01-09T13:12:30.468Z,43.20
2024-01-09T13:17:32.561Z,43.50
2024-01-09T13:23:46.635Z,43.50
2024-01-09T13:27:57.918Z,43.60
2024-01-09T13:33:01.514Z,43.50
2024-01-09T13:38:07.984Z,43.70
2024-01-09T13:43:09.837Z,43.90
2024-01-09T13:48:13.577Z,43.70
2024-01-09T13:53:19.149Z,43.80
2024-01-09T13:58:21.108Z,44.10
2024-01-09T14:03:23.312Z,44.40
2024-01-09T14:08:25.236Z,44.00
2024-01-09T14:13:27.096Z,44.50
2024-01-09T14:18:29.300Z,44.40
2024-01-09T14:23:31.129Z,44.50
2024-01-09T14:28:33.119Z,44.30
2024-01-09T14:33:35.057Z,44.30
2024-01-09T14:38:36.929Z,44.50
2024-01-09T14:43:42.375Z,44.70
2024-01-09T14:48:44.989Z,44.50
2024-01-09T14:53:47.280Z,44.30
2024-01-09T14:58:49.207Z,44.10
2024-01-09T15:03:52.009Z,44.00
2024-01-09T15:08:57.842Z,44.10
2024-01-09T15:13:59.708Z,43.80
2024-01-09T15:19:01.575Z,43.90
2024-01-09T15:24:04.840Z,43.80
2024-01-09T15:29:09.049Z,43.80
2024-01-09T15:34:11.146Z,44.00
2024-01-09T15:39:13.234Z,44.00
2024-01-09T15:44:15.065Z,44.10
2024-01-09T15:49:17.241Z,44.10
2024-01-09T15:54:20.712Z,44.20
2024-01-09T15:59:22.513Z,44.80
2024-01-09T16:04:24.278Z,44.10
2024-01-09T16:09:26.212Z,44.00
2024-01-09T16:14:27.991Z,44.00
2024-01-09T16:19:29.832Z,43.70
2024-01-09T16:24:31.698Z,43.70
2024-01-09T16:29:33.676Z,43.70
2024-01-09T16:34:35.581Z,43.70
2024-01-09T16:39:37.612Z,43.60
2024-01-09T16:44:39.331Z,43.60
2024-01-09T16:49:43.320Z,43.80
2024-01-09T16:54:45.627Z,43.70
2024-01-09T16:59:47.733Z,43.60
2024-01-09T17:04:50.266Z,43.50
2024-01-09T17:09:52.103Z,43.50
2024-01-09T17:14:54.021Z,43.40
2024-01-09T17:19:55.841Z,43.20
2024-01-09T17:24:57.693Z,42.70
2024-01-09T17:29:59.582Z,42.50
2024-01-09T17:35:02.052Z,42.40
2024-01-09T17:40:04.396Z,42.60
2024-01-09T17:45:06.919Z,42.50
2024-01-09T17:50:09.513Z,42.40
2024-01-09T17:55:11.461Z,42.30
2024-01-09T18:00:14.195Z,42.30
2024-01-09T18:05:16.785Z,42.30
2024-01-09T18:10:19.040Z,42.40
2024-01-09T18:15:21.876Z,42.40
2024-01-09T18:20:23.675Z,42.80
2024-01-09T18:25:25.440Z,42.60
2024-01-09T18:30:27.438Z,42.60
2024-01-09T18:35:29.584Z,42.50
2024-01-09T18:40:32.044Z,42.50
2024-01-09T18:45:33.981Z,42.50
2024-01-09T18:50:36.075Z,42.50
2024-01-09T18:55:37.908Z,42.40
2024-01-09T19:00:40.126Z,42.30
2024-01-09T19:05:42.310Z,42.30
2024-01-09T19:10:44.418Z,42.20
2024-01-09T19:15:46.283Z,42.20
2024-01-09T19:20:48.080Z,42.20
2024-01-09T19:25:49.888Z,42.20
2024-01-09T19:30:51.873Z,42.20
2024-01-09T19:35:53.661Z,42.20
2024-01-09T19:40:55.518Z,42.10
2024-01-09T19:45:57.325Z,42.20
2024-01-09T19:50:59.025Z,42.10
2024-01-09T19:56:01.768Z,42.10
2024-01-09T20:01:06.566Z,42.10
2024-01-09T20:06:26.967Z,42.10
2024-01-09T20:11:29.559Z,42.10
2024-01-09T20:16:32.502Z,42.00
2024-01-09T20:21:36.757Z,42.00
2024-01-09T20:26:39.601Z,42.10
2024-01-09T20:31:45.506Z,42.00
2024-01-09T20:36:47.440Z,42.00
2024-01-09T20:41:49.474Z,42.00
2024-01-09T20:46:51.503Z,42.00
2024-01-09T20:51:54.578Z,41.80
2024-01-09T20:56:56.343Z,41.80
2024-01-09T21:01:58.427Z,41.60
2024-01-09T21:07:00.298Z,41.40
2024-01-09T21:12:02.404Z,41.30
2024-01-09T21:17:04.513Z,41.30
2024-01-09T21:22:06.388Z,42.00
2024-01-09T21:27:08.937Z,41.70
2024-01-09T21:32:14.586Z,41.60
2024-01-09T21:37:16.455Z,41.70
2024-01-09T21:42:18.308Z,41.80
2024-01-09T21:47:20.322Z,41.90
2024-01-09T21:52:22.194Z,41.80
2024-01-09T21:57:25.283Z,41.90
2024-01-09T22:02:27.494Z,41.90
2024-01-09T22:07:29.264Z,41.70
2024-01-09T22:12:31.109Z,41.80
2024-01-09T22:17:33.200Z,41.90
2024-01-09T22:22:35.085Z,42.00
2024-01-09T22:27:37.112Z,42.00
2024-01-09T22:32:39.074Z,42.00
2024-01-09T22:37:40.966Z,42.00
2024-01-09T22:42:42.803Z,42.00
2024-01-09T22:47:45.452Z,42.20
2024-01-09T22:52:47.707Z,42.30
2024-01-09T22:57:49.482Z,42.90
2024-01-09T23:02:57.196Z,43.50
2024-01-09T23:07:59.924Z,44.10
2024-01-09T23:13:01.949Z,44.50
2024-01-09T23:18:04.288Z,44.90
2024-01-09T23:23:06.606Z,45.20
2024-01-09T23:28:08.434Z,45.40
2024-01-09T23:33:11.853Z,45.50
2024-01-09T23:38:13.694Z,45.70
2024-01-09T23:43:15.538Z,45.80
2024-01-09T23:48:17.857Z,45.90
2024-01-09T23:53:19.987Z,46.00
2024-01-09T23:58:21.905Z,46.10
